createdAt,value
2023-05-24T00:00:27.126Z,14.02
2023-05-24T00:02:55.168Z,10.43
2023-05-24T00:05:23.739Z,18.42
2023-05-24T00:07:51.329Z,12.75
2023-05-24T00:10:18.892Z,12.43
2023-05-24T00:12:46.438Z,15.20
2023-05-24T00:15:13.979Z,10.63
2023-05-24T00:17:42.890Z,10.82
2023-05-24T00:20:12.105Z,13.02
2023-05-24T00:22:40.151Z,10.07
2023-05-24T00:25:08.224Z,12.18
2023-05-24T00:27:37.392Z,15.50
2023-05-24T00:30:06.394Z,19.38
2023-05-24T00:32:34.241Z,14.70
2023-05-24T00:35:01.803Z,15.60
2023-05-24T00:37:29.777Z,12.23
2023-05-24T00:39:57.407Z,11.73
2023-05-24T00:42:25.026Z,13.23
2023-05-24T00:44:52.479Z,12.18
2023-05-24T00:47:20.244Z,7.97
2023-05-24T00:49:47.723Z,10.98
2023-05-24T00:52:15.724Z,11.93
2023-05-24T00:54:44.214Z,11.88
2023-05-24T00:57:14.157Z,11.93
2023-05-24T00:59:43.001Z,7.70
2023-05-24T01:02:10.676Z,14.70
2023-05-24T01:04:38.407Z,12.30
2023-05-24T01:07:26.965Z,12.20
2023-05-24T01:10:13.529Z,11.13
2023-05-24T01:12:51.065Z,9.57
2023-05-24T01:15:28.622Z,11.80
2023-05-24T01:18:14.238Z,10.43
2023-05-24T01:20:43.478Z,8.65
2023-05-24T01:24:10.064Z,10.75
2023-05-24T01:26:48.960Z,11.75
2023-05-24T01:29:16.973Z,8.27
2023-05-24T01:31:44.843Z,8.27
2023-05-24T01:34:12.546Z,14.07
2023-05-24T01:36:40.844Z,9.45
2023-05-24T01:39:08.466Z,11.52
2023-05-24T01:41:52.307Z,8.23
2023-05-24T01:44:38.202Z,9.85
2023-05-24T01:47:24.793Z,8.63
2023-05-24T01:49:57.511Z,10.25
2023-05-24T01:52:31.885Z,13.38
2023-05-24T01:55:01.299Z,5.72
2023-05-24T01:57:30.030Z,10.10
2023-05-24T01:59:59.626Z,9.77
2023-05-24T02:02:27.438Z,5.10
2023-05-24T02:04:55.123Z,14.38
2023-05-24T02:07:22.764Z,7.82
2023-05-24T02:09:50.527Z,10.85
2023-05-24T02:12:18.021Z,7.45
2023-05-24T02:14:45.581Z,10.80
2023-05-24T02:17:13.081Z,12.98
2023-05-24T02:19:41.243Z,11.00
2023-05-24T02:22:09.308Z,7.35
2023-05-24T02:24:37.956Z,8.63
2023-05-24T02:27:05.653Z,4.78
2023-05-24T02:29:33.227Z,6.95
2023-05-24T02:32:00.750Z,4.47
2023-05-24T02:34:28.320Z,6.13
2023-05-24T02:36:56.030Z,8.48
2023-05-24T02:39:23.462Z,7.05
2023-05-24T02:44:18.137Z,7.13
2023-05-24T02:49:13.902Z,8.00
2023-05-24T02:51:41.425Z,8.18
2023-05-24T02:54:08.989Z,5.72
2023-05-24T02:56:37.603Z,7.40
2023-05-24T02:59:05.194Z,7.70
2023-05-24T03:01:34.562Z,6.50
2023-05-24T03:04:03.551Z,5.05
2023-05-24T03:06:31.542Z,7.18
2023-05-24T03:08:59.390Z,3.72
2023-05-24T03:11:27.329Z,8.40
2023-05-24T03:13:54.801Z,8.00
2023-05-24T03:16:22.270Z,6.53
2023-05-24T03:18:55.425Z,7.00
2023-05-24T03:21:23.609Z,7.13
2023-05-24T03:23:51.213Z,7.05
2023-05-24T03:26:19.200Z,7.13
2023-05-24T03:28:47.729Z,7.93
2023-05-24T03:31:15.489Z,7.53
2023-05-24T03:33:42.941Z,8.15
2023-05-24T03:36:10.546Z,7.85
2023-05-24T03:38:38.542Z,5.13
2023-05-24T03:41:06.541Z,10.48
2023-05-24T03:43:34.948Z,4.10
2023-05-24T03:46:06.225Z,5.25
2023-05-24T03:48:33.748Z,6.18
2023-05-24T03:53:28.536Z,6.35
2023-05-24T03:55:56.191Z,6.10
2023-05-24T03:58:23.733Z,6.32
2023-05-24T04:00:51.739Z,3.67
2023-05-24T04:05:48.095Z,7.88
2023-05-24T04:08:16.562Z,9.05
2023-05-24T04:10:44.446Z,4.68
2023-05-24T04:13:12.862Z,7.18
2023-05-24T04:18:08.288Z,4.70
2023-05-24T04:20:36.047Z,2.72
2023-05-24T04:23:03.871Z,5.65
2023-05-24T04:25:33.508Z,9.05
2023-05-24T04:28:04.031Z,7.47
2023-05-24T04:30:33.149Z,10.68
2023-05-24T04:33:00.792Z,5.95
2023-05-24T04:35:30.363Z,5.65
2023-05-24T04:37:59.843Z,10.18
2023-05-24T04:40:27.341Z,8.18
2023-05-24T04:45:22.137Z,10.18
2023-05-24T04:47:49.777Z,7.03
2023-05-24T04:50:17.549Z,4.28
2023-05-24T04:52:45.172Z,8.60
2023-05-24T04:55:12.752Z,8.25
2023-05-24T04:57:40.152Z,7.28
2023-05-24T05:02:36.163Z,7.15
2023-05-24T05:05:03.929Z,6.57
2023-05-24T05:07:31.337Z,6.55
2023-05-24T05:09:58.849Z,5.50
2023-05-24T05:14:53.663Z,6.40
2023-05-24T05:17:21.896Z,8.48
2023-05-24T05:19:49.709Z,4.72
2023-05-24T05:22:17.527Z,6.25
2023-05-24T05:24:45.078Z,4.05
2023-05-24T05:27:12.530Z,8.00
2023-05-24T05:29:40.107Z,7.45
2023-05-24T05:32:07.636Z,4.50
2023-05-24T05:34:35.972Z,8.10
2023-05-24T05:37:03.387Z,4.32
2023-05-24T05:39:32.079Z,8.48
2023-05-24T05:42:00.162Z,5.53
2023-05-24T05:44:27.955Z,7.18
2023-05-24T05:46:55.977Z,6.22
2023-05-24T05:49:23.648Z,4.35
2023-05-24T05:51:53.042Z,6.00
2023-05-24T05:54:20.748Z,5.05
2023-05-24T05:56:48.337Z,11.93
2023-05-24T05:59:16.139Z,6.22
2023-05-24T06:01:47.181Z,2.45
2023-05-24T06:04:18.315Z,3.65
2023-05-24T06:06:49.607Z,7.43
2023-05-24T06:09:17.576Z,7.28
2023-05-24T06:11:45.206Z,6.82
2023-05-24T06:14:20.003Z,5.35
2023-05-24T06:16:48.262Z,6.30
2023-05-24T06:19:16.745Z,6.80
2023-05-24T06:21:50.213Z,10.10
2023-05-24T06:24:22.329Z,5.57
2023-05-24T06:26:52.965Z,2.70
2023-05-24T06:29:21.966Z,5.00
2023-05-24T06:31:49.939Z,7.97
2023-05-24T06:34:21.400Z,8.30
2023-05-24T06:36:51.316Z,13.05
2023-05-24T06:39:19.404Z,8.23
2023-05-24T06:41:47.464Z,2.92
2023-05-24T06:44:16.459Z,8.40
2023-05-24T06:46:44.328Z,6.43
2023-05-24T06:49:12.495Z,2.80
2023-05-24T06:51:40.253Z,7.40
2023-05-24T06:54:08.041Z,5.50
2023-05-24T06:56:35.772Z,5.75
2023-05-24T06:59:03.193Z,6.18
2023-05-24T07:01:30.745Z,3.22
2023-05-24T07:03:58.271Z,4.25
2023-05-24T07:06:25.866Z,7.03
2023-05-24T07:08:53.450Z,4.50
2023-05-24T07:11:21.147Z,2.75
2023-05-24T07:13:48.572Z,5.53
2023-05-24T07:16:16.172Z,1.45
2023-05-24T07:18:43.685Z,4.28
2023-05-24T07:21:11.190Z,2.85
2023-05-24T07:23:38.658Z,1.60
2023-05-24T07:26:06.232Z,3.08
2023-05-24T07:28:34.572Z,10.18
2023-05-24T07:31:02.681Z,5.10
2023-05-24T07:33:30.299Z,6.55
2023-05-24T07:35:58.797Z,6.38
2023-05-24T07:38:34.002Z,8.40
2023-05-24T07:43:51.211Z,5.90
2023-05-24T07:46:21.758Z,3.50
2023-05-24T07:48:51.829Z,8.25
2023-05-24T07:51:19.476Z,5.78
2023-05-24T07:53:47.372Z,3.75
2023-05-24T07:56:15.287Z,2.97
2023-05-24T07:58:45.693Z,2.65
2023-05-24T08:01:13.408Z,3.25
2023-05-24T08:03:41.127Z,3.15
2023-05-24T08:06:10.123Z,5.50
2023-05-24T08:08:37.679Z,2.50
2023-05-24T08:11:05.248Z,2.85
2023-05-24T08:13:32.756Z,8.10
2023-05-24T08:16:00.254Z,8.43
2023-05-24T08:18:27.945Z,2.92
2023-05-24T08:20:55.356Z,5.60
2023-05-24T08:23:23.013Z,4.03
2023-05-24T08:25:50.680Z,2.88
2023-05-24T08:28:18.430Z,5.53
2023-05-24T08:30:46.007Z,7.10
2023-05-24T08:33:14.281Z,5.07
2023-05-24T08:35:41.925Z,7.07
2023-05-24T08:38:09.976Z,4.20
2023-05-24T08:40:37.569Z,4.30
2023-05-24T08:43:11.918Z,6.88
2023-05-24T08:45:40.131Z,4.07
2023-05-24T08:48:08.570Z,4.68
2023-05-24T08:50:36.360Z,3.90
2023-05-24T08:53:07.203Z,5.25
2023-05-24T08:55:38.570Z,4.63
2023-05-24T08:58:06.895Z,2.92
2023-05-24T09:00:34.367Z,3.03
2023-05-24T09:03:02.182Z,4.05
2023-05-24T09:05:30.387Z,3.22
2023-05-24T09:08:01.127Z,5.07
2023-05-24T09:10:38.000Z,4.25
2023-05-24T09:13:16.032Z,5.63
2023-05-24T09:15:46.769Z,3.17
2023-05-24T09:18:14.438Z,3.85
2023-05-24T09:20:42.295Z,4.03
2023-05-24T09:23:11.251Z,4.50
2023-05-24T09:25:48.074Z,3.15
2023-05-24T09:28:17.827Z,3.30
2023-05-24T09:30:57.498Z,4.78
2023-05-24T09:33:30.661Z,3.03
2023-05-24T09:36:00.140Z,3.97
2023-05-24T09:38:28.335Z,1.88
2023-05-24T09:41:06.874Z,7.50
2023-05-24T09:43:46.831Z,3.90
2023-05-24T09:46:21.792Z,3.90
2023-05-24T09:49:11.027Z,2.95
2023-05-24T09:51:39.300Z,3.80
2023-05-24T09:54:06.915Z,3.38
2023-05-24T09:56:35.255Z,3.28
2023-05-24T09:59:10.032Z,3.03
2023-05-24T10:01:37.837Z,5.30
2023-05-24T10:04:10.216Z,3.35
2023-05-24T10:06:43.119Z,5.22
2023-05-24T10:09:11.596Z,2.08
2023-05-24T10:11:40.096Z,2.28
2023-05-24T10:14:09.984Z,1.65
2023-05-24T10:16:40.242Z,2.70
2023-05-24T10:19:07.805Z,7.18
2023-05-24T10:21:38.985Z,2.97
2023-05-24T10:24:10.039Z,6.10
2023-05-24T10:26:39.740Z,4.03
2023-05-24T10:29:13.648Z,2.22
2023-05-24T10:31:42.810Z,2.22
2023-05-24T10:34:10.867Z,4.30
2023-05-24T10:36:40.683Z,2.50
2023-05-24T10:39:11.410Z,4.75
2023-05-24T10:41:41.189Z,2.25
2023-05-24T10:44:16.417Z,2.83
2023-05-24T10:47:03.741Z,2.03
2023-05-24T10:49:31.507Z,2.05
2023-05-24T10:52:06.955Z,2.38
2023-05-24T10:54:36.023Z,4.78
2023-05-24T10:57:04.870Z,4.80
2023-05-24T10:59:38.077Z,2.78
2023-05-24T11:02:15.185Z,2.45
2023-05-24T11:04:46.583Z,2.35
2023-05-24T11:07:15.853Z,2.58
2023-05-24T11:09:46.935Z,3.75
2023-05-24T11:12:19.251Z,4.15
2023-05-24T11:14:52.452Z,3.00
2023-05-24T11:17:23.997Z,4.50
2023-05-24T11:19:53.918Z,8.15
2023-05-24T11:22:23.568Z,8.68
2023-05-24T11:24:53.340Z,4.10
2023-05-24T11:27:21.047Z,4.53
2023-05-24T11:29:49.252Z,2.33
2023-05-24T11:32:20.336Z,3.47
2023-05-24T11:34:49.156Z,3.33
2023-05-24T11:37:18.297Z,7.00
2023-05-24T11:39:52.994Z,2.70
2023-05-24T11:42:22.780Z,5.45
2023-05-24T11:44:50.660Z,8.85
2023-05-24T11:47:20.972Z,3.63
2023-05-24T11:49:52.167Z,3.88
2023-05-24T11:52:20.134Z,4.45
2023-05-24T11:54:48.605Z,2.40
2023-05-24T11:57:19.441Z,3.42
2023-05-24T11:59:47.049Z,5.80
2023-05-24T12:02:14.659Z,3.92
2023-05-24T12:04:42.208Z,3.38
2023-05-24T12:07:12.934Z,3.22
2023-05-24T12:09:40.531Z,5.32
2023-05-24T12:12:08.229Z,3.80
2023-05-24T12:14:36.379Z,2.80
2023-05-24T12:17:03.858Z,3.30
2023-05-24T12:19:35.286Z,9.27
2023-05-24T12:22:08.044Z,5.55
2023-05-24T12:24:37.648Z,7.07
2023-05-24T12:27:09.255Z,2.10
2023-05-24T12:29:40.066Z,2.35
2023-05-24T12:32:13.661Z,4.07
2023-05-24T12:34:43.267Z,3.95
2023-05-24T12:37:13.197Z,4.50
2023-05-24T12:39:43.948Z,3.65
2023-05-24T12:42:15.279Z,7.10
2023-05-24T12:44:43.109Z,2.10
2023-05-24T12:47:10.942Z,2.40
2023-05-24T12:49:39.114Z,5.75
2023-05-24T12:52:06.896Z,5.28
2023-05-24T12:54:34.762Z,4.43
2023-05-24T12:57:05.215Z,3.90
2023-05-24T12:59:33.880Z,5.72
2023-05-24T13:02:02.294Z,2.67
2023-05-24T13:04:31.890Z,3.90
2023-05-24T13:07:00.480Z,1.60
2023-05-24T13:09:28.256Z,2.40
2023-05-24T13:11:55.760Z,4.05
2023-05-24T13:14:23.484Z,6.78
2023-05-24T13:16:51.499Z,4.38
2023-05-24T13:19:19.168Z,4.00
2023-05-24T13:21:46.722Z,3.78
2023-05-24T13:24:17.534Z,3.95
2023-05-24T13:26:46.343Z,2.13
2023-05-24T13:31:45.017Z,8.10
2023-05-24T13:34:12.918Z,4.57
2023-05-24T13:36:40.616Z,8.40
2023-05-24T13:39:15.509Z,6.22
2023-05-24T13:41:45.032Z,8.32
2023-05-24T13:44:13.737Z,3.35
2023-05-24T13:46:41.997Z,9.30
2023-05-24T13:49:11.039Z,5.50
2023-05-24T13:51:39.325Z,7.00
2023-05-24T13:54:07.880Z,7.65
2023-05-24T13:56:36.668Z,5.82
2023-05-24T13:59:05.468Z,6.32
2023-05-24T14:01:34.302Z,6.90
2023-05-24T14:04:04.018Z,5.88
2023-05-24T14:06:32.933Z,9.25
2023-05-24T14:09:01.029Z,3.50
2023-05-24T14:11:31.758Z,6.90
2023-05-24T14:16:30.764Z,8.68
2023-05-24T14:18:58.371Z,8.77
2023-05-24T14:21:27.205Z,6.80
2023-05-24T14:23:55.115Z,3.92
2023-05-24T14:26:24.009Z,7.90
2023-05-24T14:28:54.380Z,5.72
2023-05-24T14:31:23.116Z,7.35
2023-05-24T14:33:50.904Z,3.80
2023-05-24T14:36:18.565Z,8.90
2023-05-24T14:38:46.752Z,5.15
2023-05-24T14:41:15.579Z,9.32
2023-05-24T14:43:43.080Z,10.18
2023-05-24T14:46:10.768Z,5.28
2023-05-24T14:48:41.451Z,8.07
2023-05-24T14:51:09.306Z,8.93
2023-05-24T14:53:36.987Z,7.45
2023-05-24T14:56:06.373Z,4.13
2023-05-24T14:58:34.127Z,6.97
2023-05-24T15:01:02.953Z,8.18
2023-05-24T15:03:30.592Z,5.82
2023-05-24T15:05:58.499Z,7.72
2023-05-24T15:08:26.226Z,7.10
2023-05-24T15:10:53.853Z,5.53
2023-05-24T15:13:23.093Z,4.55
2023-05-24T15:15:50.591Z,6.70
2023-05-24T15:18:18.061Z,4.65
2023-05-24T15:20:45.861Z,5.03
2023-05-24T15:23:13.579Z,5.15
2023-05-24T15:25:42.890Z,10.18
2023-05-24T15:28:12.951Z,6.82
2023-05-24T15:30:44.567Z,4.65
2023-05-24T15:33:13.430Z,5.40
2023-05-24T15:35:41.546Z,4.13
2023-05-24T15:38:09.121Z,6.43
2023-05-24T15:40:38.576Z,8.38
2023-05-24T15:43:06.758Z,6.32
2023-05-24T15:45:34.282Z,6.90
2023-05-24T15:48:04.623Z,6.85
2023-05-24T15:50:54.047Z,6.20
2023-05-24T15:53:23.019Z,3.55
2023-05-24T15:55:50.414Z,5.82
2023-05-24T15:58:18.520Z,5.57
2023-05-24T16:00:46.214Z,7.20
2023-05-24T16:03:15.911Z,7.97
2023-05-24T16:05:43.867Z,8.88
2023-05-24T16:08:11.495Z,8.63
2023-05-24T16:10:38.966Z,6.43
2023-05-24T16:13:06.748Z,7.07
2023-05-24T16:15:36.135Z,6.20
2023-05-24T16:18:10.738Z,9.52
2023-05-24T16:20:38.653Z,11.27
2023-05-24T16:23:06.214Z,11.00
2023-05-24T16:25:33.688Z,6.93
2023-05-24T16:28:01.247Z,14.45
2023-05-24T16:30:29.267Z,9.68
2023-05-24T16:32:56.993Z,11.40
2023-05-24T16:35:24.888Z,12.15
2023-05-24T16:37:52.343Z,16.60
2023-05-24T16:40:19.943Z,9.85
2023-05-24T16:42:48.480Z,7.32
2023-05-24T16:45:16.249Z,15.80
2023-05-24T16:47:43.838Z,11.35
2023-05-24T16:50:15.150Z,11.77
2023-05-24T16:52:43.173Z,9.15
2023-05-24T16:55:16.070Z,12.40
2023-05-24T16:57:43.544Z,11.18
2023-05-24T17:00:11.774Z,7.35
2023-05-24T17:02:39.398Z,8.45
2023-05-24T17:05:07.322Z,8.85
2023-05-24T17:07:34.980Z,10.35
2023-05-24T17:10:02.575Z,8.82
2023-05-24T17:12:30.257Z,9.60
2023-05-24T17:14:57.717Z,11.85
2023-05-24T17:17:25.373Z,9.52
2023-05-24T17:19:53.168Z,10.48
2023-05-24T17:22:21.469Z,7.07
2023-05-24T17:24:49.023Z,12.98
2023-05-24T17:27:19.880Z,8.95
2023-05-24T17:29:49.615Z,8.38
2023-05-24T17:32:17.173Z,12.00
2023-05-24T17:34:44.656Z,7.53
2023-05-24T17:37:12.093Z,12.57
2023-05-24T17:39:39.673Z,10.40
2023-05-24T17:42:07.464Z,12.18
2023-05-24T17:44:35.257Z,12.90
2023-05-24T17:47:02.768Z,13.13
2023-05-24T17:49:30.432Z,10.23
2023-05-24T17:52:00.866Z,12.35
2023-05-24T17:54:28.682Z,12.27
2023-05-24T17:56:56.798Z,12.02
2023-05-24T17:59:24.236Z,15.13
2023-05-24T18:01:51.856Z,9.23
2023-05-24T18:04:19.958Z,13.98
2023-05-24T18:06:47.403Z,10.15
2023-05-24T18:09:16.283Z,12.70
2023-05-24T18:11:43.810Z,12.85
2023-05-24T18:14:11.618Z,12.25
2023-05-24T18:16:39.228Z,11.90
2023-05-24T18:19:06.973Z,13.82
2023-05-24T18:21:34.541Z,12.00
2023-05-24T18:24:02.062Z,12.00
2023-05-24T18:26:29.438Z,11.10
2023-05-24T18:28:56.951Z,11.15
2023-05-24T18:31:24.538Z,11.68
2023-05-24T18:33:52.152Z,9.63
2023-05-24T18:36:19.664Z,14.15
2023-05-24T18:38:47.497Z,14.05
2023-05-24T18:41:16.562Z,11.57
2023-05-24T18:43:44.280Z,11.55
2023-05-24T18:46:15.159Z,10.20
2023-05-24T18:48:43.285Z,12.90
2023-05-24T18:51:11.677Z,15.85
2023-05-24T18:53:40.199Z,14.52
2023-05-24T18:56:07.666Z,11.02
2023-05-24T18:58:35.164Z,13.38
2023-05-24T19:01:02.762Z,14.05
2023-05-24T19:03:30.615Z,10.35
2023-05-24T19:05:58.077Z,11.05
2023-05-24T19:08:25.647Z,11.98
2023-05-24T19:10:53.106Z,11.10
2023-05-24T19:13:20.780Z,11.55
2023-05-24T19:15:48.454Z,13.00
2023-05-24T19:18:16.006Z,14.45
2023-05-24T19:20:43.543Z,14.32
2023-05-24T19:23:11.108Z,12.27
2023-05-24T19:25:42.167Z,12.40
2023-05-24T19:28:11.202Z,12.75
2023-05-24T19:30:38.685Z,9.40
2023-05-24T19:33:07.501Z,13.00
2023-05-24T19:35:35.240Z,13.00
2023-05-24T19:38:02.879Z,11.23
2023-05-24T19:40:30.503Z,11.40
2023-05-24T19:42:58.085Z,10.82
2023-05-24T19:45:25.793Z,11.13
2023-05-24T19:47:53.353Z,12.27
2023-05-24T19:50:20.824Z,13.13
2023-05-24T19:52:48.296Z,9.90
2023-05-24T19:55:15.752Z,11.68
2023-05-24T19:57:43.319Z,11.75
2023-05-24T20:00:12.504Z,10.23
2023-05-24T20:02:40.166Z,11.95
2023-05-24T20:05:09.054Z,13.20
2023-05-24T20:07:36.851Z,12.45
2023-05-24T20:10:05.624Z,15.30
2023-05-24T20:12:34.726Z,12.23
2023-05-24T20:15:02.772Z,10.75
2023-05-24T20:17:30.367Z,11.70
2023-05-24T20:19:57.898Z,11.68
2023-05-24T20:22:25.488Z,11.75
2023-05-24T20:24:52.904Z,14.23
2023-05-24T20:27:20.514Z,12.48
2023-05-24T20:29:48.422Z,15.43
2023-05-24T20:32:16.453Z,13.68
2023-05-24T20:34:43.920Z,9.02
2023-05-24T20:37:11.490Z,16.02
2023-05-24T20:39:38.935Z,12.55
2023-05-24T20:42:08.278Z,9.63
2023-05-24T20:44:35.928Z,12.07
2023-05-24T20:47:03.536Z,12.25
2023-05-24T20:49:31.026Z,15.82
2023-05-24T20:51:58.619Z,15.35
2023-05-24T20:54:26.213Z,11.57
2023-05-24T20:56:53.722Z,13.63
2023-05-24T20:59:21.194Z,9.52
2023-05-24T21:01:48.862Z,15.07
2023-05-24T21:04:16.412Z,14.95
2023-05-24T21:06:43.941Z,14.40
2023-05-24T21:09:11.642Z,13.95
2023-05-24T21:11:39.577Z,11.20
2023-05-24T21:14:07.009Z,11.48
2023-05-24T21:16:34.736Z,11.32
2023-05-24T21:19:02.407Z,9.13
2023-05-24T21:21:29.958Z,14.57
2023-05-24T21:23:57.964Z,12.45
2023-05-24T21:26:35.018Z,10.70
2023-05-24T21:29:05.688Z,11.95
2023-05-24T21:31:37.700Z,11.75
2023-05-24T21:34:06.440Z,14.75
2023-05-24T21:36:33.919Z,16.50
2023-05-24T21:39:03.980Z,13.18
2023-05-24T21:41:31.470Z,16.42
2023-05-24T21:43:58.961Z,16.45
2023-05-24T21:46:29.233Z,13.23
2023-05-24T21:48:59.551Z,13.55
2023-05-24T21:51:27.191Z,13.07
2023-05-24T21:53:54.753Z,10.80
2023-05-24T21:56:22.628Z,19.27
2023-05-24T21:58:50.117Z,15.13
2023-05-24T22:01:17.793Z,12.75
2023-05-24T22:03:45.366Z,13.90
2023-05-24T22:06:13.055Z,9.85
2023-05-24T22:08:40.696Z,11.77
2023-05-24T22:11:08.230Z,15.55
2023-05-24T22:13:35.722Z,17.10
2023-05-24T22:16:03.383Z,13.75
2023-05-24T22:18:30.882Z,15.75
2023-05-24T22:20:58.459Z,16.00
2023-05-24T22:23:26.612Z,14.45
2023-05-24T22:25:54.454Z,16.05
2023-05-24T22:28:21.961Z,15.23
2023-05-24T22:30:49.577Z,19.15
2023-05-24T22:33:17.106Z,14.93
2023-05-24T22:35:44.796Z,13.68
2023-05-24T22:38:12.711Z,12.93
2023-05-24T22:40:42.268Z,15.80
2023-05-24T22:43:09.877Z,15.98
2023-05-24T22:45:37.465Z,13.98
2023-05-24T22:48:05.076Z,13.77
2023-05-24T22:50:32.782Z,18.45
2023-05-24T22:53:00.239Z,10.05
2023-05-24T22:55:27.839Z,17.90
2023-05-24T22:57:55.269Z,10.45
2023-05-24T23:00:22.991Z,14.02
2023-05-24T23:02:50.587Z,13.43
2023-05-24T23:05:21.640Z,10.50
2023-05-24T23:07:49.536Z,8.15
2023-05-24T23:10:17.039Z,14.93
2023-05-24T23:12:44.677Z,13.88
2023-05-24T23:15:16.853Z,11.57
2023-05-24T23:17:44.767Z,12.02
2023-05-24T23:20:14.703Z,11.32
2023-05-24T23:22:42.348Z,13.98
2023-05-24T23:25:10.409Z,12.23
2023-05-24T23:27:38.043Z,13.57
2023-05-24T23:30:06.972Z,12.07
2023-05-24T23:32:34.496Z,11.13
2023-05-24T23:35:01.915Z,11.02
2023-05-24T23:37:29.400Z,14.90
2023-05-24T23:40:02.231Z,12.75
2023-05-24T23:42:30.065Z,12.98
2023-05-24T23:44:57.585Z,13.82
2023-05-24T23:47:25.546Z,14.82
2023-05-24T23:49:53.057Z,16.58
2023-05-24T23:52:20.742Z,13.00
2023-05-24T23:54:48.335Z,12.70
2023-05-24T23:57:15.861Z,14.57
2023-05-24T23:59:43.729Z,15.85
